Time;durP1;ratioP1;P1;durP2;ratioP2;P2;SDS_P1;SDS_P2;PMS_P1;PMS_P2;Temp;Humidity;BMP_temperature;BMP_pressure;BME280_temperature;BME280_humidity;BME280_pressure;Samples;Min_cycle;Max_cycle;Signal;HPM_P1;HPM_P2
2023/08/29 00:00:09;;;;;;;6.00;1.30;;;;;;;14.34;100.00;100152.47;5110283;28;20047;-68
2023/08/29 00:02:40;;;;;;;5.10;1.63;;;;;;;14.39;100.00;100158.31;5103289;28;20051;-67
2023/08/29 00:05:09;;;;;;;5.10;1.35;;;;;;;14.35;100.00;100164.72;5100762;28;20048;-68
2023/08/29 00:07:36;;;;;;;5.20;1.60;;;;;;;14.33;100.00;100163.97;5106949;28;20127;-67
2023/08/29 00:10:03;;;;;;;3.92;1.40;;;;;;;14.22;100.00;100148.84;5107274;28;20083;-68
2023/08/29 00:12:32;;;;;;;4.63;1.50;;;;;;;13.93;100.00;100135.66;5102350;28;20099;-68
2023/08/29 00:15:00;;;;;;;4.90;1.50;;;;;;;13.93;100.00;100143.56;5104212;28;20051;-68
2023/08/29 00:17:27;;;;;;;3.97;1.45;;;;;;;13.75;100.00;100132.38;5099484;28;20101;-68
2023/08/29 00:19:54;;;;;;;5.35;1.40;;;;;;;13.70;100.00;100129.16;5100652;28;20097;-67
2023/08/29 00:22:21;;;;;;;4.30;1.60;;;;;;;13.80;100.00;100135.56;5094281;28;20052;-67
2023/08/29 00:24:52;;;;;;;6.75;1.45;;;;;;;13.80;100.00;100129.47;5110403;28;20058;-68
2023/08/29 00:27:19;;;;;;;4.32;1.30;;;;;;;13.76;100.00;100123.56;5110507;28;20052;-68
2023/08/29 00:29:46;;;;;;;6.70;1.40;;;;;;;13.77;100.00;100108.59;5107975;28;20124;-68
2023/08/29 00:32:13;;;;;;;5.35;1.30;;;;;;;13.75;100.00;100105.22;5101462;28;20047;-68
2023/08/29 00:34:39;;;;;;;3.70;1.63;;;;;;;13.65;100.00;100110.19;5109644;28;20072;-68
2023/08/29 00:37:06;;;;;;;4.07;1.20;;;;;;;13.79;100.00;100112.84;5090906;28;20066;-68
2023/08/29 00:39:33;;;;;;;5.15;1.40;;;;;;;13.73;100.00;100107.94;5103096;28;20059;-67
2023/08/29 00:42:00;;;;;;;2.85;1.20;;;;;;;13.97;100.00;100120.53;5099674;28;20047;-68
2023/08/29 00:44:28;;;;;;;4.75;1.60;;;;;;;13.97;100.00;100112.63;5104418;28;20047;-68
2023/08/29 00:46:56;;;;;;;6.65;1.98;;;;;;;14.03;100.00;100122.81;5095225;28;20077;-68
2023/08/29 00:49:26;;;;;;;5.13;1.75;;;;;;;14.00;100.00;100123.81;5103520;28;20428;-68
2023/08/29 00:51:53;;;;;;;8.52;2.10;;;;;;;14.07;100.00;100124.28;5104424;28;20048;-68
2023/08/29 00:54:21;;;;;;;6.32;1.85;;;;;;;14.04;100.00;100101.66;5101861;28;20401;-67
2023/08/29 00:56:48;;;;;;;7.32;1.77;;;;;;;14.07;100.00;100097.97;5110067;28;20093;-68
2023/08/29 00:59:15;;;;;;;5.97;1.75;;;;;;;14.23;100.00;100122.38;5108113;28;20099;-68
2023/08/29 01:01:46;;;;;;;6.72;1.90;;;;;;;14.34;100.00;100108.56;5105788;28;20404;-67
2023/08/29 01:04:13;;;;;;;10.82;2.70;;;;;;;14.46;100.00;100103.47;5092942;28;20492;-68
2023/08/29 01:06:40;;;;;;;10.80;2.70;;;;;;;14.24;100.00;100099.56;5097619;28;20073;-67
2023/08/29 01:09:07;;;;;;;8.27;2.67;;;;;;;14.26;100.00;100104.72;5098790;28;20245;-67
2023/08/29 01:12:06;;;;;;;9.43;2.88;;;;;;;14.15;100.00;100077.28;5112017;28;20637;-67
2023/08/29 01:14:51;;;;;;;9.43;2.85;;;;;;;14.08;100.00;100088.28;5100330;28;20058;-67
2023/08/29 01:17:17;;;;;;;12.48;3.40;;;;;;;14.24;100.00;100097.75;5102616;28;20056;-68
2023/08/29 01:19:50;;;;;;;8.93;2.88;;;;;;;14.18;100.00;100085.00;5107940;28;20393;-67
2023/08/29 01:22:52;;;;;;;9.05;2.75;;;;;;;14.26;100.00;100091.56;5092365;28;20433;-68
2023/08/29 01:26:12;;;;;;;10.10;2.67;;;;;;;14.24;100.00;100091.66;5103464;28;20394;-68
2023/08/29 01:28:45;;;;;;;10.18;3.03;;;;;;;14.26;100.00;100084.50;5100249;28;20058;-68
2023/08/29 01:31:12;;;;;;;9.52;2.67;;;;;;;14.20;100.00;100091.00;5109951;28;20552;-67
2023/08/29 01:33:40;;;;;;;10.00;2.55;;;;;;;14.22;100.00;100094.38;5100044;28;20051;-67
2023/08/29 01:36:08;;;;;;;8.60;2.70;;;;;;;14.18;100.00;100094.66;5112478;28;20044;-68
2023/08/29 01:38:35;;;;;;;9.45;2.92;;;;;;;14.19;100.00;100089.31;5115894;27;20051;-68
2023/08/29 01:41:02;;;;;;;12.70;3.13;;;;;;;14.11;100.00;100064.41;5109132;28;20051;-67
2023/08/29 01:43:29;;;;;;;10.57;3.28;;;;;;;14.26;100.00;100065.25;5109440;28;20083;-68
2023/08/29 01:45:55;;;;;;;10.70;2.95;;;;;;;14.29;100.00;100076.41;5102639;28;20481;-67
2023/08/29 01:48:22;;;;;;;8.32;3.13;;;;;;;14.31;100.00;100076.31;5108407;28;20126;-67
2023/08/29 01:50:49;;;;;;;10.18;3.20;;;;;;;14.28;100.00;100085.25;5111768;28;20059;-68
2023/08/29 01:53:15;;;;;;;10.02;2.67;;;;;;;14.42;100.00;100094.91;5110551;28;20056;-68
2023/08/29 01:55:44;;;;;;;9.40;3.33;;;;;;;14.38;100.00;100093.41;5098852;28;20378;-68
2023/08/29 01:58:13;;;;;;;10.95;3.08;;;;;;;14.40;100.00;100092.38;5110465;28;20128;-67
2023/08/29 02:00:40;;;;;;;10.52;2.75;;;;;;;14.34;100.00;100079.59;5109335;28;20043;-68
2023/08/29 02:03:07;;;;;;;11.68;3.65;;;;;;;14.51;100.00;100094.31;5107354;28;20547;-68
2023/08/29 02:05:34;;;;;;;9.05;3.03;;;;;;;14.47;100.00;100084.09;5112855;28;20482;-68
2023/08/29 02:08:01;;;;;;;9.10;2.67;;;;;;;14.63;100.00;100083.97;5110795;28;20473;-67
2023/08/29 02:10:29;;;;;;;8.77;3.17;;;;;;;14.54;100.00;100080.13;5112185;28;20539;-67
2023/08/29 02:12:55;;;;;;;8.52;3.08;;;;;;;14.54;100.00;100074.84;5106341;28;20397;-67
2023/08/29 02:15:22;;;;;;;10.68;3.20;;;;;;;14.54;100.00;100070.41;5111471;28;20051;-68
2023/08/29 02:17:49;;;;;;;8.40;3.20;;;;;;;14.55;100.00;100053.66;5105070;28;20461;-67
2023/08/29 02:20:15;;;;;;;14.98;3.35;;;;;;;14.47;100.00;100066.50;5112600;28;20070;-67
2023/08/29 02:22:42;;;;;;;8.60;2.42;;;;;;;14.39;100.00;100056.44;5111449;28;20043;-67
2023/08/29 02:25:09;;;;;;;9.40;2.85;;;;;;;14.39;100.00;100051.16;5112553;28;20062;-67
2023/08/29 02:27:36;;;;;;;8.07;2.63;;;;;;;14.21;100.00;100040.03;5112753;28;20100;-67
2023/08/29 02:30:04;;;;;;;10.43;2.80;;;;;;;14.24;100.00;100033.72;5103523;28;20054;-67
2023/08/29 02:32:34;;;;;;;8.98;2.78;;;;;;;14.24;100.00;100050.38;5095793;28;20048;-68
2023/08/29 02:35:03;;;;;;;9.13;2.70;;;;;;;14.14;100.00;100041.34;5112151;28;20044;-68
2023/08/29 02:37:30;;;;;;;7.97;2.35;;;;;;;14.27;100.00;100037.94;5111210;28;20598;-68
2023/08/29 02:39:57;;;;;;;8.68;2.53;;;;;;;14.12;100.00;100037.16;5101391;28;20044;-68
2023/08/29 02:42:24;;;;;;;7.57;2.22;;;;;;;13.99;100.00;100034.44;5104364;28;20074;-67
2023/08/29 02:44:51;;;;;;;7.45;2.10;;;;;;;14.10;100.00;100047.78;5109043;28;20051;-68
2023/08/29 02:47:18;;;;;;;9.73;2.47;;;;;;;14.18;100.00;100045.50;5104308;28;20043;-68
2023/08/29 02:49:45;;;;;;;7.82;1.80;;;;;;;14.18;100.00;100045.50;5096703;28;20047;-68
2023/08/29 02:52:11;;;;;;;12.40;2.90;;;;;;;14.14;100.00;100058.94;5103076;28;20143;-67
2023/08/29 02:54:38;;;;;;;6.63;2.20;;;;;;;14.02;100.00;100050.91;5106295;28;20055;-68
2023/08/29 02:57:05;;;;;;;7.90;2.47;;;;;;;13.93;100.00;100045.34;5111581;28;20063;-68
2023/08/29 02:59:31;;;;;;;8.23;2.38;;;;;;;13.94;100.00;100047.88;5102809;28;20067;-68
2023/08/29 03:02:00;;;;;;;7.50;2.28;;;;;;;13.77;100.00;100050.72;5110144;27;20497;-68
2023/08/29 03:04:27;;;;;;;8.23;2.40;;;;;;;13.73;100.00;100042.16;5106224;28;20059;-68
2023/08/29 03:06:53;;;;;;;8.43;2.58;;;;;;;13.68;100.00;100041.59;5102272;28;20055;-68
2023/08/29 03:09:20;;;;;;;9.43;2.80;;;;;;;13.63;100.00;100043.66;5109382;28;20072;-68
2023/08/29 03:11:47;;;;;;;8.07;2.20;;;;;;;13.59;100.00;100035.13;5102448;28;20047;-68
2023/08/29 03:14:14;;;;;;;11.63;2.88;;;;;;;13.62;100.00;100037.56;5103119;28;20043;-68
2023/08/29 03:16:41;;;;;;;6.95;2.38;;;;;;;13.64;100.00;100033.06;5099168;28;20477;-67
2023/08/29 03:19:07;;;;;;;9.57;2.50;;;;;;;13.58;100.00;100029.94;5100405;28;20055;-68
2023/08/29 03:21:34;;;;;;;9.30;2.53;;;;;;;13.58;100.00;100030.81;5093776;28;20052;-67
2023/08/29 03:24:02;;;;;;;8.25;2.38;;;;;;;13.60;100.00;100022.84;5106736;28;20039;-68
2023/08/29 03:26:28;;;;;;;8.60;1.98;;;;;;;13.63;100.00;100035.78;5111312;28;20497;-67
2023/08/29 03:28:55;;;;;;;7.72;2.45;;;;;;;13.66;100.00;100041.69;5111207;28;20058;-67
2023/08/29 03:31:22;;;;;;;9.02;2.33;;;;;;;13.62;100.00;100044.63;5102112;28;20043;-67
2023/08/29 03:33:48;;;;;;;7.20;2.40;;;;;;;13.55;100.00;100035.44;5110909;28;20061;-67
2023/08/29 03:36:15;;;;;;;6.78;2.35;;;;;;;13.50;100.00;100035.69;5108612;28;20055;-68
2023/08/29 03:38:42;;;;;;;10.82;2.47;;;;;;;13.47;100.00;100027.97;5097917;28;20409;-68
2023/08/29 03:41:09;;;;;;;6.72;2.30;;;;;;;13.49;100.00;100031.34;5091027;28;20409;-68
2023/08/29 03:43:36;;;;;;;6.00;2.20;;;;;;;13.46;100.00;100021.06;5090967;28;20048;-68
2023/08/29 03:46:07;;;;;;;7.55;2.35;;;;;;;13.30;100.00;100011.44;5104047;28;20048;-68
2023/08/29 03:48:35;;;;;;;8.18;2.40;;;;;;;13.38;100.00;100034.66;5107161;28;20409;-68
2023/08/29 03:51:06;;;;;;;7.03;2.45;;;;;;;13.21;100.00;100017.25;5110595;28;20135;-68
2023/08/29 03:53:34;;;;;;;6.18;2.13;;;;;;;13.24;100.00;100008.31;5109106;28;20090;-68
2023/08/29 03:56:05;;;;;;;5.72;1.80;;;;;;;13.25;100.00;100004.75;5110335;28;20054;-67
2023/08/29 03:58:32;;;;;;;7.07;2.00;;;;;;;13.29;100.00;99993.09;5095886;27;20046;-68
2023/08/29 04:00:59;;;;;;;8.52;2.35;;;;;;;13.27;100.00;100001.09;5109200;28;20069;-68
2023/08/29 04:03:26;;;;;;;7.32;2.40;;;;;;;13.13;100.00;99990.56;5102499;28;20050;-68
2023/08/29 04:05:53;;;;;;;12.07;3.45;;;;;;;13.10;100.00;99982.84;5109998;28;20052;-68
2023/08/29 04:08:20;;;;;;;7.60;2.67;;;;;;;13.10;100.00;99990.72;5110668;28;20055;-68
2023/08/29 04:10:47;;;;;;;9.93;3.08;;;;;;;13.13;100.00;99981.84;5101778;28;20074;-68
2023/08/29 04:13:13;;;;;;;8.75;2.60;;;;;;;13.21;100.00;99984.81;5102775;28;20103;-68
2023/08/29 04:15:41;;;;;;;6.75;2.47;;;;;;;13.15;100.00;99987.84;5107379;28;20054;-67
2023/08/29 04:18:08;;;;;;;8.68;2.67;;;;;;;13.09;100.00;99999.56;5102179;28;20035;-67
2023/08/29 04:20:36;;;;;;;7.55;2.33;;;;;;;13.02;100.00;99985.13;5105072;28;20401;-68
2023/08/29 04:23:03;;;;;;;8.68;2.83;;;;;;;13.05;100.00;99991.03;5104040;28;20056;-67
2023/08/29 04:25:31;;;;;;;10.07;3.20;;;;;;;13.11;100.00;99987.19;5110946;28;20051;-68
2023/08/29 04:27:57;;;;;;;7.20;2.30;;;;;;;12.98;100.00;99986.22;5105171;28;20319;-68
2023/08/29 04:30:24;;;;;;;8.63;3.17;;;;;;;12.88;100.00;99980.66;5100858;28;20135;-67
2023/08/29 04:32:51;;;;;;;6.82;2.45;;;;;;;12.84;100.00;99977.38;5106195;28;20135;-68
2023/08/29 04:35:19;;;;;;;9.68;2.72;;;;;;;12.80;100.00;99989.00;5096391;28;20127;-67
2023/08/29 04:37:48;;;;;;;8.73;2.80;;;;;;;12.70;100.00;99991.31;5103930;28;20051;-68
2023/08/29 04:40:18;;;;;;;7.68;2.45;;;;;;;12.81;100.00;99984.59;5101067;28;20040;-67
2023/08/29 04:42:45;;;;;;;8.40;2.83;;;;;;;12.82;100.00;99994.16;5101414;28;20436;-68
2023/08/29 04:45:11;;;;;;;7.13;2.50;;;;;;;12.77;100.00;99980.47;5107083;28;20039;-68
2023/08/29 04:47:39;;;;;;;9.35;3.53;;;;;;;12.77;100.00;99976.06;5108231;28;20215;-68
2023/08/29 04:50:07;;;;;;;7.68;2.50;;;;;;;12.71;100.00;99976.41;5109248;28;20075;-68
2023/08/29 04:52:34;;;;;;;8.13;2.88;;;;;;;12.69;100.00;99987.00;5100856;28;20456;-68
2023/08/29 04:55:01;;;;;;;10.35;3.28;;;;;;;12.61;100.00;99988.41;5089314;28;20048;-68
2023/08/29 04:57:28;;;;;;;7.43;3.03;;;;;;;12.72;100.00;99988.59;5098164;28;20058;-68
2023/08/29 04:59:54;;;;;;;7.38;2.80;;;;;;;12.72;100.00;99985.97;5093705;28;20476;-68
2023/08/29 05:02:21;;;;;;;9.00;2.72;;;;;;;12.67;100.00;99977.53;5104388;28;20473;-67
2023/08/29 05:04:48;;;;;;;8.07;2.55;;;;;;;12.57;100.00;99968.47;5109420;28;20063;-68
2023/08/29 05:07:15;;;;;;;10.52;3.10;;;;;;;12.42;100.00;99973.69;5095775;28;20709;-68
2023/08/29 05:09:41;;;;;;;7.63;2.58;;;;;;;12.38;100.00;99968.69;5108035;28;20658;-67
2023/08/29 05:12:10;;;;;;;8.77;3.13;;;;;;;12.37;100.00;99959.16;5108330;28;20071;-68
2023/08/29 05:14:38;;;;;;;11.05;2.42;;;;;;;12.51;100.00;99974.94;5109899;28;20043;-68
2023/08/29 05:17:08;;;;;;;8.32;2.75;;;;;;;12.59;100.00;99979.75;5106771;28;20057;-67
2023/08/29 05:19:35;;;;;;;9.65;3.60;;;;;;;12.66;100.00;99966.19;5109678;28;20058;-67
2023/08/29 05:22:02;;;;;;;10.70;3.10;;;;;;;12.69;100.00;99973.84;5102321;28;20485;-68
2023/08/29 05:24:28;;;;;;;16.23;3.08;;;;;;;12.65;100.00;99982.03;5107753;28;20062;-68
2023/08/29 05:26:55;;;;;;;8.10;2.72;;;;;;;12.69;100.00;99973.84;5102390;28;20428;-68
2023/08/29 05:29:22;;;;;;;10.00;2.88;;;;;;;12.48;100.00;99949.72;5101977;28;20043;-68
2023/08/29 05:31:48;;;;;;;9.70;2.78;;;;;;;12.60;100.00;99976.19;5107260;28;20536;-68
2023/08/29 05:34:15;;;;;;;8.45;2.88;;;;;;;12.57;100.00;99979.84;5102944;28;20519;-68
2023/08/29 05:36:42;;;;;;;9.95;3.20;;;;;;;12.55;100.00;99968.56;5109312;28;20052;-68
2023/08/29 05:39:09;;;;;;;8.35;2.53;;;;;;;12.60;100.00;99981.44;5100942;28;20063;-67
2023/08/29 05:41:35;;;;;;;8.23;2.28;;;;;;;12.57;100.00;99981.63;5104519;28;20149;-68
2023/08/29 05:44:03;;;;;;;9.90;3.00;;;;;;;12.67;100.00;99988.03;5095556;28;20050;-68
2023/08/29 05:46:30;;;;;;;11.40;2.72;;;;;;;12.50;100.00;99973.25;5105025;28;20052;-68
2023/08/29 05:48:59;;;;;;;7.50;2.40;;;;;;;12.62;100.00;99979.56;5099996;28;20066;-67
2023/08/29 05:51:28;;;;;;;7.40;2.40;;;;;;;12.65;100.00;99984.66;5106340;28;20062;-68
2023/08/29 05:53:55;;;;;;;8.43;2.20;;;;;;;12.65;100.00;99974.97;5102409;28;20489;-68
2023/08/29 05:56:22;;;;;;;7.07;2.13;;;;;;;12.77;100.00;99973.44;5108291;28;20052;-67
2023/08/29 05:58:48;;;;;;;9.82;2.70;;;;;;;12.84;100.00;99977.38;5109206;28;20499;-68
2023/08/29 06:01:15;;;;;;;6.32;2.22;;;;;;;12.91;100.00;99978.72;5108136;28;20055;-68
2023/08/29 06:03:42;;;;;;;8.68;2.88;;;;;;;13.01;100.00;99981.63;5108286;28;20044;-68
2023/08/29 06:06:09;;;;;;;7.57;2.63;;;;;;;13.11;100.00;99982.75;5113558;28;20048;-68
2023/08/29 06:08:36;;;;;;;6.72;2.40;;;;;;;13.15;100.00;99982.59;5108976;28;20424;-68
2023/08/29 06:11:03;;;;;;;5.97;2.15;;;;;;;13.24;100.00;99984.66;5104767;28;20048;-68
2023/08/29 06:13:30;;;;;;;9.48;2.45;;;;;;;13.35;100.00;99974.38;5108515;28;20059;-68
2023/08/29 06:15:57;;;;;;;6.43;1.80;;;;;;;13.50;100.00;99977.84;5109464;28;20071;-68
2023/08/29 06:18:24;;;;;;;6.05;1.90;;;;;;;13.51;100.00;99986.56;5104577;28;20416;-67
2023/08/29 06:20:52;;;;;;;7.05;2.00;;;;;;;13.58;100.00;99980.84;5102993;28;20112;-67
2023/08/29 06:23:19;;;;;;;5.38;1.90;;;;;;;13.73;100.00;99986.94;5112024;28;20055;-68
2023/08/29 06:25:45;;;;;;;6.50;2.13;;;;;;;13.66;100.00;99968.03;5112387;28;20059;-68
2023/08/29 06:28:12;;;;;;;8.75;2.58;;;;;;;13.85;100.00;99988.78;5105409;28;20048;-68
2023/08/29 06:30:38;;;;;;;4.80;1.80;;;;;;;13.90;100.00;99985.00;5106121;28;20067;-68
2023/08/29 06:33:06;;;;;;;6.28;2.08;;;;;;;13.88;100.00;99987.72;5108778;28;20468;-68
2023/08/29 06:35:40;;;;;;;6.40;1.90;;;;;;;13.84;100.00;99971.28;5112683;28;20608;-68
2023/08/29 06:38:07;;;;;;;7.93;2.13;;;;;;;14.07;100.00;99989.22;5094726;28;20044;-68
2023/08/29 06:40:35;;;;;;;6.95;2.38;;;;;;;13.96;100.00;99974.94;5111432;28;20055;-69
2023/08/29 06:43:02;;;;;;;5.60;2.00;;;;;;;14.30;100.00;99980.66;5096723;28;20433;-68
2023/08/29 06:45:29;;;;;;;7.72;2.25;;;;;;;14.32;100.00;99981.41;5109955;28;20058;-68
2023/08/29 06:47:56;;;;;;;7.28;2.08;;;;;;;14.64;100.00;99983.72;5111938;28;20130;-68
2023/08/29 06:50:23;;;;;;;6.53;1.95;;;;;;;15.23;100.00;99987.69;5110987;28;20039;-68
2023/08/29 06:52:50;;;;;;;7.38;2.38;;;;;;;15.14;100.00;99990.03;5098088;28;20060;-68
2023/08/29 06:55:17;;;;;;;5.03;1.92;;;;;;;15.96;100.00;99994.91;5107956;28;20048;-68
2023/08/29 06:57:43;;;;;;;5.85;1.85;;;;;;;15.68;100.00;99999.47;5120844;27;20128;-69
2023/08/29 07:00:11;;;;;;;10.93;2.95;;;;;;;15.82;100.00;99997.69;5110161;28;20397;-68
2023/08/29 07:02:38;;;;;;;8.02;2.30;;;;;;;16.45;100.00;99995.75;5106963;28;20048;-68
2023/08/29 07:05:05;;;;;;;9.05;2.53;;;;;;;16.12;100.00;99992.84;5108208;28;20074;-68
2023/08/29 07:07:32;;;;;;;6.50;1.98;;;;;;;16.01;100.00;100005.16;5107975;28;20084;-68
2023/08/29 07:09:58;;;;;;;8.32;2.35;;;;;;;15.42;100.00;100003.09;5100931;28;20047;-68
2023/08/29 07:12:25;;;;;;;6.93;2.15;;;;;;;15.71;100.00;99987.88;5100175;28;20052;-68
2023/08/29 07:14:52;;;;;;;6.47;2.03;;;;;;;16.37;100.00;99982.28;5106934;28;20055;-68
2023/08/29 07:17:19;;;;;;;10.55;3.08;;;;;;;16.99;100.00;99984.69;5100704;28;20039;-68
2023/08/29 07:19:45;;;;;;;8.25;2.58;;;;;;;17.22;100.00;99982.91;5116884;27;20456;-68
2023/08/29 07:22:12;;;;;;;5.95;2.00;;;;;;;17.03;100.00;99980.00;5107871;28;20043;-68
2023/08/29 07:24:43;;;;;;;8.25;2.22;;;;;;;17.31;100.00;99981.34;5111578;28;20512;-68
2023/08/29 07:27:11;;;;;;;7.60;2.20;;;;;;;17.40;100.00;99988.56;5126588;27;20060;-68
2023/08/29 07:29:37;;;;;;;7.38;2.08;;;;;;;17.68;100.00;99982.91;5091504;28;20129;-68
2023/08/29 07:32:04;;;;;;;6.38;1.90;;;;;;;17.65;100.00;99987.50;5098103;28;20123;-68
2023/08/29 07:34:31;;;;;;;6.93;2.45;;;;;;;17.25;100.00;99958.88;5107114;28;20063;-68
2023/08/29 07:36:58;;;;;;;7.00;2.13;;;;;;;17.51;100.00;99989.53;5100948;28;20142;-68
2023/08/29 07:39:25;;;;;;;9.05;2.35;;;;;;;17.82;100.00;99987.97;5098905;28;20097;-68
2023/08/29 07:41:53;;;;;;;9.48;2.75;;;;;;;17.39;100.00;99991.34;5109580;28;20519;-69
2023/08/29 07:44:20;;;;;;;11.00;2.40;;;;;;;17.73;100.00;99980.75;5121085;27;20056;-69
2023/08/29 07:46:47;;;;;;;5.93;1.90;;;;;;;17.44;100.00;99987.38;5108125;28;20047;-68
2023/08/29 07:49:34;;;;;;;5.32;1.70;;;;;;;17.41;100.00;99987.63;5111191;28;20048;-68
2023/08/29 07:52:01;;;;;;;7.25;1.80;;;;;;;17.69;100.00;99979.28;5106159;28;20485;-68
2023/08/29 07:54:28;;;;;;;6.40;1.95;;;;;;;17.51;100.00;99989.53;5112097;28;20083;-68
2023/08/29 07:56:54;;;;;;;5.45;1.65;;;;;;;18.05;100.00;99980.84;5097793;28;20050;-68
2023/08/29 07:59:22;;;;;;;5.97;1.63;;;;;;;18.39;100.00;99983.38;5104258;28;20043;-68
2023/08/29 08:01:48;;;;;;;6.95;1.92;;;;;;;18.30;100.00;99979.69;5108558;28;20477;-68
2023/08/29 08:04:15;;;;;;;8.85;2.50;;;;;;;18.21;100.00;99978.63;5111422;28;20432;-69
2023/08/29 08:06:42;;;;;;;7.80;2.28;;;;;;;18.17;100.00;99976.38;5107578;28;20077;-68
2023/08/29 08:09:09;;;;;;;8.52;2.03;;;;;;;18.68;100.00;99975.66;5106694;28;20053;-68
2023/08/29 08:11:35;;;;;;;8.73;2.42;;;;;;;18.86;100.00;99980.44;5109411;28;20071;-68
2023/08/29 08:14:03;;;;;;;5.80;1.65;;;;;;;18.85;100.00;99981.41;5110114;28;20134;-71
2023/08/29 08:16:29;;;;;;;5.30;1.60;;;;;;;19.30;100.00;99989.03;5109670;28;20098;-69
2023/08/29 08:18:56;;;;;;;6.95;2.03;;;;;;;19.41;100.00;99988.16;5108944;28;20082;-68
2023/08/29 08:21:23;;;;;;;5.35;1.88;;;;;;;19.49;100.00;99983.00;5101582;28;20052;-68
2023/08/29 08:23:49;;;;;;;9.55;2.58;;;;;;;19.64;100.00;99983.47;5106158;28;20048;-68
2023/08/29 08:26:16;;;;;;;6.43;1.90;;;;;;;19.53;100.00;99990.56;5108153;28;20051;-68
2023/08/29 08:28:43;;;;;;;4.65;1.58;;;;;;;19.70;100.00;99991.72;5109578;28;20516;-68
2023/08/29 08:31:10;;;;;;;4.90;1.50;;;;;;;20.14;100.00;99985.31;5107948;28;20078;-68
2023/08/29 08:33:37;;;;;;;6.03;1.60;;;;;;;19.48;100.00;99979.50;5101105;28;20052;-68
2023/08/29 08:36:04;;;;;;;4.95;1.50;;;;;;;19.67;100.00;99989.38;5107991;28;20044;-68
2023/08/29 08:38:31;;;;;;;6.55;1.70;;;;;;;19.59;100.00;99985.69;5107699;28;20501;-68
2023/08/29 08:40:58;;;;;;;5.85;1.55;;;;;;;19.56;100.00;99984.13;5107046;28;20402;-68
2023/08/29 08:43:26;;;;;;;6.35;1.23;;;;;;;19.62;100.00;99986.28;5104150;28;20315;-68
2023/08/29 08:45:53;;;;;;;4.25;1.23;;;;;;;19.71;100.00;99987.28;5095906;28;20051;-68
2023/08/29 08:48:20;;;;;;;9.48;1.48;;;;;;;19.99;100.00;99984.84;5097058;28;20055;-68
2023/08/29 08:50:49;;;;;;;11.20;1.80;;;;;;;19.37;100.00;99984.06;5108989;28;20044;-68
2023/08/29 08:53:19;;;;;;;4.53;1.40;;;;;;;19.97;100.00;99974.34;5099731;28;20476;-68
2023/08/29 08:55:47;;;;;;;5.60;1.20;;;;;;;19.57;100.00;99953.97;5107729;28;20490;-68
2023/08/29 08:58:13;;;;;;;5.78;1.50;;;;;;;20.01;100.00;99967.81;5100107;28;20047;-68
2023/08/29 09:00:40;;;;;;;4.85;1.20;;;;;;;20.63;100.00;99971.09;5109169;28;20413;-68
2023/08/29 09:03:07;;;;;;;4.22;1.20;;;;;;;20.15;100.00;99981.66;5097426;28;20044;-68
2023/08/29 09:05:33;;;;;;;5.60;1.40;;;;;;;20.03;100.00;99973.00;5107229;28;20052;-68
2023/08/29 09:08:01;;;;;;;9.00;1.58;;;;;;;20.07;100.00;99969.06;5110367;28;20048;-68
2023/08/29 09:10:33;;;;;;;4.95;1.38;;;;;;;20.30;100.00;99978.44;5109093;28;20039;-68
2023/08/29 09:12:59;;;;;;;4.80;1.33;;;;;;;20.37;100.00;99965.44;5102480;28;20048;-68
2023/08/29 09:15:26;;;;;;;6.57;1.70;;;;;;;20.26;100.00;99966.44;5104956;28;20059;-68
2023/08/29 09:17:54;;;;;;;3.33;1.13;;;;;;;20.01;100.00;99959.84;5093077;28;20047;-67
2023/08/29 09:20:22;;;;;;;4.72;1.30;;;;;;;20.12;100.00;99963.34;5106060;28;20520;-67
2023/08/29 09:22:48;;;;;;;4.97;1.30;;;;;;;20.31;100.00;99952.72;5100218;28;20036;-67
2023/08/29 09:25:15;;;;;;;6.90;1.60;;;;;;;19.87;100.00;99953.09;5100061;28;20106;-68
2023/08/29 09:27:44;;;;;;;6.95;1.60;;;;;;;20.17;100.00;99955.78;5105516;28;20051;-68
2023/08/29 09:30:14;;;;;;;6.13;1.50;;;;;;;20.26;100.00;99945.16;5099300;28;20443;-68
2023/08/29 09:32:51;;;;;;;4.40;1.48;;;;;;;20.42;100.00;99941.13;5104588;28;20407;-68
2023/08/29 09:35:22;;;;;;;5.63;1.55;;;;;;;20.65;100.00;99933.72;5105264;28;20044;-68
2023/08/29 09:37:55;;;;;;;8.10;2.10;;;;;;;20.04;100.00;99938.31;5088771;28;20413;-68
2023/08/29 09:40:22;;;;;;;6.85;1.50;;;;;;;20.40;100.00;99924.47;5112143;28;20044;-68
2023/08/29 09:42:55;;;;;;;8.02;1.73;;;;;;;20.07;100.00;99916.75;5107442;28;20424;-68
2023/08/29 09:45:22;;;;;;;9.13;1.90;;;;;;;19.86;100.00;99914.22;5111361;28;20051;-68
2023/08/29 09:47:53;;;;;;;5.28;1.40;;;;;;;20.00;100.00;99914.81;5094625;28;20048;-67
2023/08/29 09:50:21;;;;;;;6.35;1.60;;;;;;;20.37;100.00;99909.63;5112423;27;20040;-67
2023/08/29 09:52:51;;;;;;;8.77;1.60;;;;;;;19.98;100.00;99922.06;5111687;28;20790;-67
2023/08/29 09:55:19;;;;;;;5.28;1.63;;;;;;;20.53;100.00;99913.53;5110529;28;20054;-67
2023/08/29 09:57:52;;;;;;;8.27;1.83;;;;;;;20.35;100.00;99910.75;5111757;28;20055;-67
2023/08/29 10:00:22;;;;;;;8.70;1.83;;;;;;;20.30;100.00;99898.72;5111077;28;20065;-68
2023/08/29 10:02:54;;;;;;;5.60;1.50;;;;;;;20.48;100.00;99906.81;5111924;28;20083;-67
2023/08/29 10:05:25;;;;;;;6.33;1.57;;;;;;;20.58;100.00;99898.00;5108145;28;20123;-67
2023/08/29 10:07:57;;;;;;;8.13;1.80;;;;;;;20.98;100.00;99897.78;5105562;28;20051;-68
2023/08/29 10:10:23;;;;;;;5.63;1.55;;;;;;;21.00;100.00;99894.94;5113562;28;20051;-67
2023/08/29 10:12:51;;;;;;;7.60;1.67;;;;;;;20.99;100.00;99904.78;5104007;28;20471;-68
2023/08/29 10:15:18;;;;;;;5.78;1.50;;;;;;;20.95;100.00;99898.06;5113441;28;20050;-68
2023/08/29 10:17:47;;;;;;;7.55;2.00;;;;;;;20.76;100.00;99875.00;5111739;28;20051;-68
2023/08/29 10:20:17;;;;;;;8.27;1.60;;;;;;;20.50;100.00;99877.41;5112719;28;20044;-68
2023/08/29 10:22:47;;;;;;;7.70;1.60;;;;;;;20.69;100.00;99868.59;5101779;28;20059;-67
2023/08/29 10:25:15;;;;;;;7.15;1.55;;;;;;;20.91;100.00;99872.75;5109152;28;20043;-67
2023/08/29 10:27:42;;;;;;;10.38;2.03;;;;;;;21.03;99.08;99876.91;5106375;28;20055;-68
2023/08/29 10:30:09;;;;;;;10.63;2.42;;;;;;;20.91;100.00;99878.06;5097612;28;20744;-67
2023/08/29 10:32:37;;;;;;;6.53;1.70;;;;;;;21.05;100.00;99874.06;5103707;28;20043;-68
2023/08/29 10:35:04;;;;;;;7.90;1.65;;;;;;;20.88;98.66;99874.84;5113945;27;20044;-68
2023/08/29 10:37:31;;;;;;;6.45;1.60;;;;;;;20.73;98.86;99874.47;5112541;28;20522;-68
2023/08/29 10:40:11;;;;;;;6.60;1.88;;;;;;;20.45;95.49;99861.06;5110491;28;20773;-68
2023/08/29 10:42:57;;;;;;;8.10;2.00;;;;;;;20.54;100.00;99848.72;5099405;28;20044;-68
2023/08/29 10:45:46;;;;;;;8.50;1.75;;;;;;;20.57;100.00;99862.56;5101286;28;20052;-68
2023/08/29 10:48:21;;;;;;;7.18;1.90;;;;;;;21.08;100.00;99854.31;5097847;28;20432;-68
2023/08/29 10:51:07;;;;;;;8.98;1.75;;;;;;;21.24;100.00;99860.66;5112294;28;20499;-68
2023/08/29 10:53:38;;;;;;;8.18;2.50;;;;;;;20.98;100.00;99855.22;5106834;28;20154;-68
2023/08/29 10:56:08;;;;;;;6.68;1.52;;;;;;;21.35;100.00;99851.63;5099131;28;20056;-68
2023/08/29 10:58:38;;;;;;;8.70;2.10;;;;;;;20.62;100.00;99860.34;5101551;28;20044;-67
2023/08/29 11:01:24;;;;;;;10.93;2.47;;;;;;;20.86;100.00;99851.06;5102590;28;20042;-67
2023/08/29 11:03:51;;;;;;;7.95;1.70;;;;;;;21.07;100.00;99839.31;5094922;28;20048;-67
2023/08/29 11:06:21;;;;;;;5.85;1.80;;;;;;;20.84;100.00;99831.72;5110562;28;20544;-68
2023/08/29 11:08:47;;;;;;;7.03;1.55;;;;;;;21.36;100.00;99842.69;5108660;28;20070;-67
2023/08/29 11:11:17;;;;;;;8.82;1.98;;;;;;;21.02;99.06;99845.94;5111486;28;20407;-67
2023/08/29 11:14:04;;;;;;;9.88;2.13;;;;;;;21.04;100.00;99837.81;5110069;28;20499;-67
2023/08/29 11:16:35;;;;;;;7.55;1.80;;;;;;;20.72;100.00;99844.38;5094361;28;20059;-67
2023/08/29 11:19:13;;;;;;;8.35;1.60;;;;;;;21.21;100.00;99839.69;5103974;28;20087;-67
2023/08/29 11:21:44;;;;;;;13.40;1.90;;;;;;;21.07;100.00;99826.03;5098514;28;20040;-68
2023/08/29 11:24:11;;;;;;;5.97;1.80;;;;;;;21.07;100.00;99837.53;5096515;28;20040;-67
2023/08/29 11:26:47;;;;;;;7.70;1.60;;;;;;;20.72;100.00;99836.41;5112772;28;20625;-68